Time;durP1;ratioP1;P1;durP2;ratioP2;P2;SDS_P1;SDS_P2;PMS_P1;PMS_P2;Temp;Humidity;BMP_temperature;BMP_pressure;BME280_temperature;BME280_humidity;BME280_pressure;Samples;Min_cycle;Max_cycle;Signal;HPM_P1;HPM_P2
2023/10/12 00:00:27;;;;;;;;;;;;;;;11.82;100.00;101100.88;4889811;29;20401;-87
2023/10/12 00:03:16;;;;;;;;;;;;;;;11.80;100.00;101100.09;4891312;29;19970;-88
2023/10/12 00:06:05;;;;;;;;;;;;;;;11.82;100.00;101094.69;4882056;29;20689;-86
2023/10/12 00:08:51;;;;;;;;;;;;;;;11.81;100.00;101100.94;4892548;29;19946;-87
2023/10/12 00:11:40;;;;;;;;;;;;;;;11.79;100.00;101109.00;4891308;29;20045;-86
2023/10/12 00:14:29;;;;;;;;;;;;;;;11.81;100.00;101098.28;4879617;29;19942;-86
2023/10/12 00:17:17;;;;;;;;;;;;;;;11.79;100.00;101097.50;4891134;29;19927;-86
2023/10/12 00:20:08;;;;;;;;;;;;;;;11.78;100.00;101096.63;4891639;29;19924;-87
2023/10/12 00:22:54;;;;;;;;;;;;;;;11.78;100.00;101104.59;4895550;29;19939;-86
2023/10/12 00:25:54;;;;;;;;;;;;;;;11.75;100.00;101110.06;4879985;29;19969;-85
2023/10/12 00:28:39;;;;;;;;;;;;;;;11.76;100.00;101102.97;4881696;29;19937;-86
2023/10/12 00:31:26;;;;;;;;;;;;;;;11.75;100.00;101099.44;4891432;29;22005;-86
2023/10/12 00:34:11;;;;;;;;;;;;;;;11.73;100.00;101109.28;4888573;29;19932;-86
2023/10/12 00:36:57;;;;;;;;;;;;;;;11.72;100.00;101104.88;4888647;29;20517;-87
2023/10/12 00:39:57;;;;;;;;;;;;;;;11.72;100.00;101099.56;4886283;29;19943;-86
2023/10/12 00:42:51;;;;;;;;;;;;;;;11.74;100.00;101095.06;4879475;29;20593;-86
2023/10/12 00:45:36;;;;;;;;;;;;;;;11.71;100.00;101097.00;4882035;29;19931;-86
2023/10/12 00:48:29;;;;;;;;;;;;;;;11.70;100.00;101106.75;4888903;29;20069;-87
2023/10/12 00:51:16;;;;;;;;;;;;;;;11.65;100.00;101108.72;4902087;29;19965;-87
2023/10/12 00:54:04;;;;;;;;;;;;;;;11.60;100.00;101116.91;4892112;29;20026;-87
2023/10/12 00:56:50;;;;;;;;;;;;;;;11.51;100.00;101122.63;4890113;29;20033;-87
2023/10/12 00:59:38;;;;;;;;;;;;;;;11.46;100.00;101124.63;4877018;29;20426;-89
2023/10/12 01:02:39;;;;;;;;;;;;;;;11.38;100.00;101125.84;4876870;29;20406;-87
2023/10/12 01:05:25;;;;;;;;;;;;;;;11.34;100.00;101126.03;4902288;29;19946;-88
2023/10/12 01:08:18;;;;;;;;;;;;;;;11.32;100.00;101125.25;4900843;29;19985;-86
2023/10/12 01:11:06;;;;;;;;;;;;;;;11.30;100.00;101125.31;4918024;29;20666;-88
2023/10/12 01:19:44;;;;;;;;;;;;;;;11.18;100.00;101131.16;4911957;29;20449;-90
2023/10/12 01:22:31;;;;;;;;;;;;;;;11.17;100.00;101122.31;4910229;29;19953;-87
2023/10/12 01:25:22;;;;;;;;;;;;;;;11.19;100.00;101133.75;4927188;29;19938;-88
2023/10/12 01:28:12;;;;;;;;;;;;;;;11.20;100.00;101134.59;4925153;28;19989;-88
2023/10/12 01:30:57;;;;;;;;;;;;;;;11.18;100.00;101129.38;4910598;29;19940;-88
2023/10/12 01:33:43;;;;;;;;;;;;;;;11.19;100.00;101144.34;4901430;29;20366;-87
2023/10/12 01:36:30;;;;;;;;;;;;;;;11.19;100.00;101132.88;4923682;29;19934;-88
2023/10/12 01:39:18;;;;;;;;;;;;;;;11.19;100.00;101141.69;4924511;29;19941;-87
2023/10/12 01:42:05;;;;;;;;;;;;;;;11.19;100.00;101149.66;4924842;28;19931;-88
2023/10/12 01:44:54;;;;;;;;;;;;;;;11.19;100.00;101154.94;4912620;28;19977;-87
2023/10/12 01:47:44;;;;;;;;;;;;;;;11.21;100.00;101149.56;4900918;29;19927;-90
2023/10/12 01:50:32;;;;;;;;;;;;;;;11.21;100.00;101147.78;4912295;28;20061;-87
2023/10/12 01:53:23;;;;;;;;;;;;;;;11.21;100.00;101157.50;4908514;29;20385;-88
2023/10/12 01:56:10;;;;;;;;;;;;;;;11.22;100.00;101154.78;4923837;28;20318;-89
2023/10/12 01:58:56;;;;;;;;;;;;;;;11.22;100.00;101152.16;4900238;29;19961;-89
2023/10/12 02:01:46;;;;;;;;;;;;;;;11.22;100.00;101156.59;4909373;28;19965;-88
2023/10/12 02:04:31;;;;;;;;;;;;;;;11.25;100.00;101156.47;4897955;29;20298;-88
2023/10/12 02:07:17;;;;;;;;;;;;;;;11.22;100.00;101146.84;4922480;29;20029;-87
2023/10/12 02:10:10;;;;;;;;;;;;;;;11.23;100.00;101153.88;4908455;29;19930;-88
2023/10/12 02:12:56;;;;;;;;;;;;;;;11.23;100.00;101155.66;4915654;29;19942;-88
2023/10/12 02:15:45;;;;;;;;;;;;;;;11.19;100.00;101149.66;4908564;29;20326;-88
2023/10/12 02:18:31;;;;;;;;;;;;;;;11.18;100.00;101153.22;4910022;29;20018;-87
2023/10/12 02:21:21;;;;;;;;;;;;;;;11.18;100.00;101158.53;4912259;29;20361;-89
2023/10/12 02:26:52;;;;;;;;;;;;;;;11.15;100.00;101153.34;4909400;29;19931;-88
2023/10/12 02:29:39;;;;;;;;;;;;;;;11.16;100.00;101157.72;4908710;29;20397;-88
2023/10/12 02:32:25;;;;;;;;;;;;;;;11.15;100.00;101156.00;4896326;29;19927;-87
2023/10/12 02:35:12;;;;;;;;;;;;;;;11.13;100.00;101161.34;4901187;29;20437;-89
2023/10/12 02:37:58;;;;;;;;;;;;;;;11.10;100.00;101155.31;4914435;29;20388;-88
2023/10/12 02:40:45;;;;;;;;;;;;;;;11.07;100.00;101155.47;4911825;29;20409;-88
2023/10/12 02:43:32;;;;;;;;;;;;;;;11.07;100.00;101163.41;4911524;29;19935;-90
2023/10/12 02:46:22;;;;;;;;;;;;;;;11.05;100.00;101162.63;4923484;29;19934;-88
2023/10/12 02:49:08;;;;;;;;;;;;;;;11.04;100.00;101151.16;4898632;29;19961;-88
2023/10/12 02:51:54;;;;;;;;;;;;;;;11.00;100.00;101155.72;4909072;29;20396;-89
2023/10/12 02:57:37;;;;;;;;;;;;;;;10.99;100.00;101163.72;4922986;28;20945;-89
2023/10/12 03:00:32;;;;;;;;;;;;;;;10.99;100.00;101163.72;4916504;29;19930;-88
2023/10/12 03:03:31;;;;;;;;;;;;;;;10.98;100.00;101173.47;4901715;29;20025;-88
2023/10/12 03:06:23;;;;;;;;;;;;;;;10.98;100.00;101172.59;4912810;29;20305;-88
2023/10/12 03:11:56;;;;;;;;;;;;;;;10.95;100.00;101181.53;4926829;29;19927;-88
2023/10/12 03:14:42;;;;;;;;;;;;;;;10.94;100.00;101186.88;4911475;29;19991;-88
2023/10/12 03:17:28;;;;;;;;;;;;;;;10.93;100.00;101194.00;4926823;28;20025;-87
2023/10/12 03:20:23;;;;;;;;;;;;;;;10.90;100.00;101196.75;4901894;29;19954;-87
2023/10/12 03:23:16;;;;;;;;;;;;;;;10.87;100.00;101191.59;4920369;29;20367;-87
2023/10/12 03:26:04;;;;;;;;;;;;;;;10.85;100.00;101189.00;4915565;29;20367;-88
2023/10/12 03:32:00;;;;;;;;;;;;;;;10.84;100.00;101205.81;4913386;28;20013;-88
2023/10/12 03:37:45;;;;;;;;;;;;;;;10.83;100.00;101195.28;4914393;29;21895;-88
2023/10/12 03:43:39;;;;;;;;;;;;;;;10.82;100.00;101214.75;4926090;28;19934;-88
2023/10/12 03:46:28;;;;;;;;;;;;;;;10.80;100.00;101209.53;4926241;28;19938;-88
2023/10/12 03:49:24;;;;;;;;;;;;;;;10.79;100.00;101214.88;4901567;29;20039;-88
2023/10/12 03:52:14;;;;;;;;;;;;;;;10.76;100.00;101221.16;4924864;28;19926;-87
2023/10/12 03:58:06;;;;;;;;;;;;;;;10.70;100.00;101219.63;4912110;29;19927;-89
2023/10/12 04:01:13;;;;;;;;;;;;;;;10.68;100.00;101216.16;4902611;28;19979;-90
2023/10/12 04:03:58;;;;;;;;;;;;;;;10.65;100.00;101215.44;4903175;29;19938;-90
2023/10/12 04:09:53;;;;;;;;;;;;;;;10.60;100.00;101226.22;4912625;28;19931;-88
2023/10/12 04:12:49;;;;;;;;;;;;;;;10.60;100.00;101215.63;4899295;29;20314;-89
2023/10/12 04:19:03;;;;;;;;;;;;;;;10.56;100.00;101235.19;4926900;28;20207;-89
2023/10/12 04:22:07;;;;;;;;;;;;;;;10.54;100.00;101237.03;4916252;29;19945;-88
2023/10/12 04:24:55;;;;;;;;;;;;;;;10.54;100.00;101244.97;4903345;29;20564;-86
2023/10/12 04:27:50;;;;;;;;;;;;;;;10.51;100.00;101247.75;4900057;29;20017;-89
2023/10/12 04:31:20;;;;;;;;;;;;;;;10.49;100.00;101261.03;4905306;28;21862;-85
2023/10/12 04:36:52;;;;;;;;;;;;;;;10.47;100.00;101265.53;4912513;29;19970;-87
2023/10/12 04:39:38;;;;;;;;;;;;;;;10.46;100.00;101272.63;4925772;28;19941;-90
2023/10/12 04:42:34;;;;;;;;;;;;;;;10.42;100.00;101271.00;4903884;29;20295;-88
2023/10/12 04:48:17;;;;;;;;;;;;;;;10.39;100.00;101275.50;4928618;28;20358;-89
2023/10/12 04:51:07;;;;;;;;;;;;;;;10.37;100.00;101272.94;4914650;29;20511;-89
2023/10/12 04:53:57;;;;;;;;;;;;;;;10.38;100.00;101274.66;4913315;28;19930;-90
2023/10/12 04:56:56;;;;;;;;;;;;;;;10.36;100.00;101280.94;4899829;29;19930;-89
2023/10/12 05:00:00;;;;;;;;;;;;;;;10.34;100.00;101280.97;4910258;29;19930;-88
2023/10/12 05:05:54;;;;;;;;;;;;;;;10.32;100.00;101294.28;4910663;29;19922;-88
2023/10/12 05:08:40;;;;;;;;;;;;;;;10.32;100.00;101304.00;4928635;28;19934;-89
2023/10/12 05:11:28;;;;;;;;;;;;;;;10.30;100.00;101303.19;4913372;28;19978;-89
2023/10/12 05:14:14;;;;;;;;;;;;;;;10.29;100.00;101298.81;4913010;29;19941;-90
2023/10/12 05:17:00;;;;;;;;;;;;;;;10.26;100.00;101306.88;4927668;28;20283;-88
2023/10/12 05:19:45;;;;;;;;;;;;;;;10.21;100.00;101298.22;4928485;28;20476;-90
2023/10/12 05:22:31;;;;;;;;;;;;;;;10.22;100.00;101289.38;4914551;29;19958;-89
2023/10/12 05:25:17;;;;;;;;;;;;;;;10.20;100.00;101294.75;4900679;29;20059;-89
2023/10/12 05:28:13;;;;;;;;;;;;;;;10.18;100.00;101307.13;4898599;29;19930;-89
2023/10/12 05:30:59;;;;;;;;;;;;;;;10.17;100.00;101298.34;4911357;28;19930;-88
2023/10/12 05:34:00;;;;;;;;;;;;;;;10.16;100.00;101301.06;4925928;29;19933;-90
2023/10/12 05:36:46;;;;;;;;;;;;;;;10.13;100.00;101291.44;4910520;29;20354;-90
2023/10/12 05:39:32;;;;;;;;;;;;;;;10.12;100.00;101295.00;4914441;29;19935;-90
2023/10/12 05:42:22;;;;;;;;;;;;;;;10.10;100.00;101293.34;4901824;29;20806;-89
2023/10/12 05:45:30;;;;;;;;;;;;;;;10.07;100.00;101302.25;4909410;29;19927;-89
2023/10/12 05:48:16;;;;;;;;;;;;;;;10.06;100.00;101295.22;4926948;28;19934;-90
2023/10/12 05:51:03;;;;;;;;;;;;;;;10.05;100.00;101296.16;4900450;29;19938;-89
2023/10/12 05:53:49;;;;;;;;;;;;;;;10.02;100.00;101286.53;4912520;29;19932;-90
2023/10/12 05:56:34;;;;;;;;;;;;;;;10.00;100.00;101282.22;4913428;28;19927;-89
2023/10/12 05:59:24;;;;;;;;;;;;;;;9.96;100.00;101286.75;4926189;29;21168;-89
2023/10/12 06:02:22;;;;;;;;;;;;;;;9.94;100.00;101290.38;4911188;29;19954;-89
2023/10/12 06:05:08;;;;;;;;;;;;;;;9.93;100.00;101294.81;4924686;29;20003;-90
2023/10/12 06:08:00;;;;;;;;;;;;;;;9.92;100.00;101293.94;4924561;29;19926;-89
2023/10/12 06:10:46;;;;;;;;;;;;;;;9.91;100.00;101308.09;4902895;29;19938;-89
2023/10/12 06:13:39;;;;;;;;;;;;;;;9.88;100.00;101302.91;4923815;29;19939;-89
2023/10/12 06:16:26;;;;;;;;;;;;;;;9.88;100.00;101304.69;4913817;29;19985;-89
2023/10/12 06:22:42;;;;;;;;;;;;;;;9.82;100.00;101305.78;4912091;29;19926;-89
2023/10/12 06:25:21;;;;;;;;;;;;;;;9.83;100.00;101319.84;4917609;29;19930;-91
2023/10/12 06:28:14;;;;;;;;;;;;;;;9.81;100.00;101322.53;4928981;29;20329;-90
2023/10/12 06:31:01;;;;;;;;;;;;;;;9.81;100.00;101316.41;4914710;29;19930;-92
2023/10/12 06:33:48;;;;;;;;;;;;;;;9.77;100.00;101315.63;4925432;28;20394;-90
2023/10/12 06:36:37;;;;;;;;;;;;;;;9.78;100.00;101327.94;4933956;29;19937;-90
2023/10/12 06:42:25;;;;;;;;;;;;;;;9.76;100.00;101319.22;4928590;29;19942;-90
2023/10/12 06:45:15;;;;;;;;;;;;;;;9.78;100.00;101335.88;4907299;29;20287;-89
2023/10/12 06:48:23;;;;;;;;;;;;;;;9.78;100.00;101343.81;4921715;29;20025;-92
2023/10/12 06:51:07;;;;;;;;;;;;;;;9.80;100.00;101341.13;4916080;29;20021;-91
2023/10/12 06:53:53;;;;;;;;;;;;;;;9.81;100.00;101351.63;4906588;29;21816;-89
2023/10/12 06:56:39;;;;;;;;;;;;;;;9.83;100.00;101355.09;4910060;29;20437;-90
2023/10/12 06:59:35;;;;;;;;;;;;;;;9.85;100.00;101362.97;4903028;28;19934;-88
2023/10/12 07:02:29;;;;;;;;;;;;;;;9.89;100.00;101368.13;4906316;29;19931;-90
2023/10/12 07:05:20;;;;;;;;;;;;;;;9.92;100.00;101375.09;4916822;29;20314;-91
2023/10/12 07:08:08;;;;;;;;;;;;;;;9.97;100.00;101377.56;4911218;29;20879;-90
2023/10/12 07:10:58;;;;;;;;;;;;;;;10.01;100.00;101371.22;4913755;28;19934;-90
2023/10/12 07:13:45;;;;;;;;;;;;;;;10.07;100.00;101389.53;4937037;28;20530;-90
2023/10/12 07:16:52;;;;;;;;;;;;;;;10.14;100.00;101388.41;4923672;29;20397;-90
2023/10/12 07:19:41;;;;;;;;;;;;;;;10.22;100.00;101380.22;4928953;29;20404;-91
2023/10/12 07:22:27;;;;;;;;;;;;;;;10.29;100.00;101391.44;4917811;29;19981;-91
2023/10/12 07:25:12;;;;;;;;;;;;;;;10.37;100.00;101396.47;4913935;29;20021;-91
2023/10/12 07:28:01;;;;;;;;;;;;;;;10.45;100.00;101391.78;4925392;29;20393;-90
2023/10/12 07:33:59;;;;;;;;;;;;;;;10.55;100.00;101397.59;4938270;28;19949;-90
2023/10/12 07:36:47;;;;;;;;;;;;;;;10.55;100.00;101402.91;4923526;29;19935;-91
2023/10/12 07:39:42;;;;;;;;;;;;;;;10.57;100.00;101404.56;4937229;29;19931;-91
2023/10/12 07:42:28;;;;;;;;;;;;;;;10.60;100.00;101403.59;4925830;29;19935;-90
2023/10/12 07:45:15;;;;;;;;;;;;;;;10.65;100.00;101408.72;4918813;28;19934;-90
2023/10/12 07:48:00;;;;;;;;;;;;;;;10.71;100.00;101411.16;4914503;29;21465;-90
2023/10/12 07:50:46;;;;;;;;;;;;;;;10.79;100.00;101405.59;4931315;29;19965;-89
2023/10/12 07:53:37;;;;;;;;;;;;;;;10.82;100.00;101408.97;4902477;28;19950;-91
2023/10/12 07:56:23;;;;;;;;;;;;;;;10.88;100.00;101404.38;4906388;29;19930;-91
2023/10/12 07:59:13;;;;;;;;;;;;;;;10.93;100.00;101397.97;4918363;29;19978;-91
2023/10/12 08:02:08;;;;;;;;;;;;;;;10.99;100.00;101387.16;4908569;29;20333;-89
2023/10/12 08:04:58;;;;;;;;;;;;;;;11.00;100.00;101388.88;4933513;29;19935;-91
2023/10/12 08:13:33;;;;;;;;;;;;;;;11.17;100.00;101397.94;4932515;29;20429;-89
2023/10/12 08:16:25;;;;;;;;;;;;;;;11.24;100.00;101387.97;4930395;29;19941;-89
2023/10/12 08:19:39;;;;;;;;;;;;;;;11.30;100.00;101392.16;4933901;28;19930;-91
2023/10/12 08:22:17;;;;;;;;;;;;;;;11.38;100.00;101390.94;4931860;28;19931;-89
2023/10/12 08:25:07;;;;;;;;;;;;;;;11.45;100.00;101386.25;4906634;29;19927;-89
2023/10/12 08:27:53;;;;;;;;;;;;;;;11.47;100.00;101399.44;4916664;28;19927;-89
2023/10/12 08:30:57;;;;;;;;;;;;;;;11.46;100.00;101406.53;4916923;28;19931;-90
2023/10/12 08:33:48;;;;;;;;;;;;;;;11.50;100.00;101402.81;4906460;29;20025;-89
2023/10/12 08:36:54;;;;;;;;;;;;;;;11.51;100.00;101398.38;4916629;29;19986;-89
2023/10/12 08:39:49;;;;;;;;;;;;;;;11.49;100.00;101398.44;4923264;29;20352;-89
2023/10/12 08:42:55;;;;;;;;;;;;;;;11.51;100.00;101398.38;4917269;29;19981;-90
2023/10/12 08:45:42;;;;;;;;;;;;;;;11.52;100.00;101395.69;4907671;29;20345;-90
2023/10/12 08:48:34;;;;;;;;;;;;;;;11.57;100.00;101405.22;4917431;28;20057;-90
2023/10/12 08:51:29;;;;;;;;;;;;;;;11.58;100.00;101401.63;4903322;29;19934;-90
2023/10/12 08:54:16;;;;;;;;;;;;;;;11.59;100.00;101401.59;4921794;29;20012;-90
2023/10/12 08:57:03;;;;;;;;;;;;;;;11.57;100.00;101413.19;4900148;28;20386;-90
2023/10/12 09:00:19;;;;;;;;;;;;;;;11.55;100.00;101415.88;4902443;29;20427;-89
2023/10/12 09:03:03;;;;;;;;;;;;;;;11.60;100.00;101418.38;4917314;29;20389;-91
2023/10/12 09:05:51;;;;;;;;;;;;;;;11.64;100.00;101419.97;4905092;29;20323;-89
2023/10/12 09:11:34;;;;;;;;;;;;;;;11.66;100.00;101426.09;4919907;28;19931;-89
2023/10/12 09:14:23;;;;;;;;;;;;;;;11.66;100.00;101428.75;4901866;29;19937;-89
2023/10/12 09:17:20;;;;;;;;;;;;;;;11.69;100.00;101428.59;4914176;29;20433;-87
2023/10/12 09:20:28;;;;;;;;;;;;;;;11.69;100.00;101418.00;4901630;29;19973;-88
2023/10/12 09:23:15;;;;;;;;;;;;;;;11.73;100.00;101427.56;4912191;29;19931;-89
2023/10/12 09:35:14;;;;;;;;;;;;;;;11.83;100.00;101414.78;4927432;29;19927;-88
2023/10/12 09:38:01;;;;;;;;;;;;;;;11.88;100.00;101419.88;4914167;29;20571;-88
2023/10/12 09:40:52;;;;;;;;;;;;;;;11.93;100.00;101418.75;4900513;29;19941;-87
2023/10/12 09:43:41;;;;;;;;;;;;;;;11.95;100.00;101418.69;4913200;28;19941;-87
2023/10/12 09:46:27;;;;;;;;;;;;;;;11.93;100.00;101416.09;4914333;28;19977;-88
2023/10/12 09:49:27;;;;;;;;;;;;;;;11.95;100.00;101413.41;4925302;28;19942;-87
2023/10/12 09:52:17;;;;;;;;;;;;;;;11.97;100.00;101419.50;4911889;29;19942;-88
2023/10/12 09:55:14;;;;;;;;;;;;;;;12.01;100.00;101421.09;4910934;29;19931;-86
2023/10/12 09:58:12;;;;;;;;;;;;;;;12.05;100.00;101420.06;4925479;29;19954;-88
2023/10/12 10:01:15;;;;;;;;;;;;;;;12.07;100.00;101422.66;4927447;28;19958;-88
2023/10/12 10:04:27;;;;;;;;;;;;;;;12.06;100.00;101426.25;4907588;29;20452;-88
2023/10/12 10:07:25;;;;;;;;;;;;;;;12.06;100.00;101423.59;4926987;29;19930;-88
2023/10/12 10:10:27;;;;;;;;;;;;;;;12.10;100.00;101433.16;4902120;29;19985;-89
2023/10/12 10:13:37;;;;;;;;;;;;;;;12.15;100.00;101432.94;4899268;29;21168;-88
2023/10/12 10:16:23;;;;;;;;;;;;;;;12.18;100.00;101436.34;4926118;29;19934;-88
2023/10/12 10:19:16;;;;;;;;;;;;;;;12.22;100.00;101426.44;4898630;29;19931;-89
2023/10/12 10:22:05;;;;;;;;;;;;;;;12.26;100.00;101433.34;4911908;29;19923;-87
2023/10/12 10:24:55;;;;;;;;;;;;;;;12.30;100.00;101432.28;4925194;28;19934;-78
2023/10/12 10:27:41;;;;;;;;;;;;;;;12.38;100.00;101441.72;4921529;29;20045;-84
2023/10/12 10:30:36;;;;;;;;;;;;;;;12.46;100.00;101445.75;4910148;29;20415;-86
2023/10/12 10:33:22;;;;;;;;;;;;;;;12.59;100.00;101438.09;4913048;29;20553;-85
2023/10/12 10:36:24;;;;;;;;;;;;;;;12.69;100.00;101446.53;4918300;29;20910;-89
2023/10/12 10:42:00;;;;;;;;;;;;;;;12.70;100.00;101452.72;4910089;29;19935;-85
2023/10/12 10:44:46;;;;;;;;;;;;;;;12.73;100.00;101456.09;4910053;29;19933;-84
2023/10/12 10:47:32;;;;;;;;;;;;;;;12.82;100.00;101444.19;4908439;29;20022;-83
2023/10/12 10:50:20;;;;;;;;;;;;;;;12.95;100.00;101443.59;4920790;29;19945;-87
2023/10/12 10:53:08;;;;;;;;;;;;;;;13.05;100.00;101447.56;4907002;29;20800;-87
2023/10/12 10:55:53;;;;;;;;;;;;;;;13.10;100.00;101445.56;4900245;29;19930;-85
2023/10/12 10:58:39;;;;;;;;;;;;;;;13.08;100.00;101439.44;4909039;29;19935;-86
2023/10/12 11:01:26;;;;;;;;;;;;;;;13.08;100.00;101442.09;4923931;28;20010;-85
2023/10/12 11:04:18;;;;;;;;;;;;;;;13.15;100.00;101442.69;4922702;29;19990;-85
2023/10/12 11:07:04;;;;;;;;;;;;;;;13.20;100.00;101442.47;4907760;29;19930;-85
2023/10/12 11:12:39;;;;;;;;;;;;;;;13.28;100.00;101435.00;4924789;29;19930;-85
2023/10/12 11:15:24;;;;;;;;;;;;;;;13.28;100.00;101432.34;4898590;29;20013;-86
2023/10/12 11:18:17;;;;;;;;;;;;;;;13.28;100.00;101432.34;4923949;29;19942;-84
2023/10/12 11:21:04;;;;;;;;;;;;;;;13.28;100.00;101438.53;4912227;29;19930;-86
2023/10/12 11:23:51;;;;;;;;;;;;;;;13.27;100.00;101436.81;4913314;29;19931;-85
2023/10/12 11:26:51;;;;;;;;;;;;;;;13.28;100.00;101432.34;4905501;29;20382;-86
2023/10/12 11:29:48;;;;;;;;;;;;;;;13.26;100.00;101435.09;4927381;29;19926;-85
2023/10/12 11:32:51;;;;;;;;;;;;;;;13.30;100.00;101435.81;4914670;29;19931;-86
2023/10/12 11:35:40;;;;;;;;;;;;;;;13.37;100.00;101441.69;4929689;28;20902;-87
2023/10/12 11:38:26;;;;;;;;;;;;;;;13.40;100.00;101426.44;4914308;29;20302;-87
2023/10/12 11:41:13;;;;;;;;;;;;;;;13.41;100.00;101422.84;4913575;28;20752;-85
2023/10/12 11:44:00;;;;;;;;;;;;;;;13.42;100.00;101419.22;4909266;28;20370;-84
2023/10/12 11:46:46;;;;;;;;;;;;;;;13.43;100.00;101418.31;4908553;28;20614;-82
2023/10/12 11:49:45;;;;;;;;;;;;;;;13.44;100.00;101408.53;4922860;28;21800;-85
2023/10/12 11:52:34;;;;;;;;;;;;;;;13.44;100.00;101421.81;4927064;28;20283;-84
2023/10/12 11:55:21;;;;;;;;;;;;;;;13.42;100.00;101416.56;4904048;29;19930;-84
2023/10/12 11:58:07;;;;;;;;;;;;;;;13.43;100.00;101412.13;4923563;29;19985;-84
2023/10/12 12:00:53;;;;;;;;;;;;;;;13.40;100.00;101415.78;4923289;28;19970;-85
2023/10/12 12:03:45;;;;;;;;;;;;;;;13.38;100.00;101407.03;4904084;29;20025;-84
2023/10/12 12:06:32;;;;;;;;;;;;;;;13.36;100.00;101414.25;4927076;28;19934;-85
2023/10/12 12:09:18;;;;;;;;;;;;;;;13.32;100.00;101412.66;4911561;29;20037;-84
2023/10/12 12:12:07;;;;;;;;;;;;;;;13.29;100.00;101408.34;4910845;28;19945;-84
2023/10/12 12:14:53;;;;;;;;;;;;;;;13.26;100.00;101402.31;4912306;28;20472;-85
2023/10/12 12:17:38;;;;;;;;;;;;;;;13.25;100.00;101400.59;4928777;28;20551;-86
2023/10/12 12:20:25;;;;;;;;;;;;;;;13.26;100.00;101397.88;4927008;29;19927;-84
2023/10/12 12:23:11;;;;;;;;;;;;;;;13.27;100.00;101390.72;4927379;28;19934;-85
2023/10/12 12:26:04;;;;;;;;;;;;;;;13.29;100.00;101384.41;4912363;28;19930;-83
2023/10/12 12:29:03;;;;;;;;;;;;;;;13.30;100.00;101378.16;4926635;29;19934;-84
2023/10/12 12:31:49;;;;;;;;;;;;;;;13.35;100.00;101375.25;4912691;28;19931;-84
2023/10/12 12:34:47;;;;;;;;;;;;;;;13.36;100.00;101377.00;4911929;29;20574;-83
2023/10/12 12:37:37;;;;;;;;;;;;;;;13.33;100.00;101370.97;4926784;28;21854;-85
2023/10/12 12:43:12;;;;;;;;;;;;;;;13.33;100.00;101371.81;4924627;28;19970;-87
2023/10/12 12:45:57;;;;;;;;;;;;;;;13.33;100.00;101366.50;4900646;29;19933;-87
2023/10/12 12:48:46;;;;;;;;;;;;;;;13.35;100.00;101369.94;4919446;28;19936;-87
2023/10/12 12:51:31;;;;;;;;;;;;;;;13.33;100.00;101371.81;4912125;29;20271;-87
2023/10/12 12:54:17;;;;;;;;;;;;;;;13.31;100.00;101373.69;4910777;28;19941;-87
2023/10/12 12:57:04;;;;;;;;;;;;;;;13.30;100.00;101369.31;4927035;29;19938;-87
2023/10/12 12:59:54;;;;;;;;;;;;;;;13.26;100.00;101360.63;4926641;29;19934;-85
2023/10/12 13:02:39;;;;;;;;;;;;;;;13.21;100.00;101357.34;4911621;29;20409;-89
2023/10/12 13:05:25;;;;;;;;;;;;;;;13.20;100.00;101370.69;4894488;29;20351;-83
2023/10/12 13:08:11;;;;;;;;;;;;;;;13.18;100.00;101366.31;4923832;28;19934;-86
2023/10/12 13:10:57;;;;;;;;;;;;;;;13.19;100.00;101367.19;4924658;28;19935;-85
2023/10/12 13:13:42;;;;;;;;;;;;;;;13.18;100.00;101357.47;4926114;29;19926;-85
2023/10/12 13:16:31;;;;;;;;;;;;;;;13.15;100.00;101358.50;4926585;29;19973;-86
2023/10/12 13:19:21;;;;;;;;;;;;;;;13.12;100.00;101355.97;4925745;29;19965;-85
2023/10/12 13:22:13;;;;;;;;;;;;;;;13.08;100.00;101357.03;4911729;28;19989;-84
2023/10/12 13:24:58;;;;;;;;;;;;;;;13.04;100.00;101355.50;4924892;28;19941;-85
2023/10/12 13:27:46;;;;;;;;;;;;;;;13.02;100.00;101360.03;4911345;29;19926;-85
2023/10/12 13:30:33;;;;;;;;;;;;;;;12.98;100.00;101355.78;4911290;29;19957;-85
2023/10/12 13:33:21;;;;;;;;;;;;;;;12.95;100.00;101354.13;4912264;28;19935;-85
2023/10/12 13:36:08;;;;;;;;;;;;;;;12.94;100.00;101347.09;4923927;28;19934;-84
2023/10/12 13:38:54;;;;;;;;;;;;;;;12.92;100.00;101345.44;4908546;29;19931;-85
2023/10/12 13:41:39;;;;;;;;;;;;;;;12.92;100.00;101340.13;4925133;28;20033;-85
2023/10/12 13:44:29;;;;;;;;;;;;;;;12.90;100.00;101346.38;4924995;28;19930;-85
2023/10/12 13:47:15;;;;;;;;;;;;;;;12.93;100.00;101353.34;4925609;28;19931;-84
2023/10/12 13:50:05;;;;;;;;;;;;;;;12.95;100.00;101351.47;4924957;29;20008;-84
2023/10/12 13:52:52;;;;;;;;;;;;;;;12.95;100.00;101351.47;4925396;28;19923;-84
2023/10/12 13:55:38;;;;;;;;;;;;;;;12.94;100.00;101354.19;4898189;29;19941;-87
2023/10/12 13:58:24;;;;;;;;;;;;;;;12.90;100.00;101350.81;4916092;29;19931;-85
2023/10/12 14:01:18;;;;;;;;;;;;;;;12.88;100.00;101345.59;4924104;28;19934;-86
2023/10/12 14:07:09;;;;;;;;;;;;;;;12.85;100.00;101344.88;4905808;29;19981;-86
2023/10/12 14:09:55;;;;;;;;;;;;;;;12.83;100.00;101342.28;4909343;29;20435;-86
2023/10/12 14:12:42;;;;;;;;;;;;;;;12.81;100.00;101344.13;4924706;28;19937;-87
2023/10/12 14:15:27;;;;;;;;;;;;;;;12.77;100.00;101351.38;4908201;29;19934;-86
2023/10/12 14:18:16;;;;;;;;;;;;;;;12.71;100.00;101357.00;4897485;29;19941;-86
2023/10/12 14:21:02;;;;;;;;;;;;;;;12.69;100.00;101345.56;4909127;29;20012;-86
2023/10/12 14:23:50;;;;;;;;;;;;;;;12.67;100.00;101341.25;4896698;29;19937;-87
2023/10/12 14:26:36;;;;;;;;;;;;;;;12.66;100.00;101335.09;4881170;28;19946;-87
2023/10/12 14:29:24;;;;;;;;;;;;;;;12.66;100.00;101334.22;4910074;29;20302;-86
2023/10/12 14:32:13;;;;;;;;;;;;;;;12.66;100.00;101328.91;4906613;28;19938;-87
2023/10/12 14:35:00;;;;;;;;;;;;;;;12.66;100.00;101324.47;4905189;29;19930;-87
2023/10/12 14:37:46;;;;;;;;;;;;;;;12.67;100.00;101318.22;4896818;28;19941;-88
2023/10/12 14:40:32;;;;;;;;;;;;;;;12.66;100.00;101316.50;4904677;29;20901;-88
2023/10/12 14:43:21;;;;;;;;;;;;;;;12.67;100.00;101325.31;4921546;28;19930;-87
2023/10/12 14:46:10;;;;;;;;;;;;;;;12.65;100.00;101324.53;4908224;29;19927;-80
2023/10/12 14:48:56;;;;;;;;;;;;;;;12.64;100.00;101323.66;4906926;29;20050;-87
2023/10/12 14:51:42;;;;;;;;;;;;;;;12.63;100.00;101328.13;4918416;28;20614;-91
2023/10/12 14:54:27;;;;;;;;;;;;;;;12.62;100.00;101326.41;4908816;28;19927;-89
2023/10/12 14:57:13;;;;;;;;;;;;;;;12.61;100.00;101316.72;4928212;28;19941;-89
2023/10/12 14:59:59;;;;;;;;;;;;;;;12.58;100.00;101314.19;4911343;29;19938;-91
2023/10/12 15:02:48;;;;;;;;;;;;;;;12.57;100.00;101308.94;4899603;29;20409;-88
2023/10/12 15:05:36;;;;;;;;;;;;;;;12.53;100.00;101308.22;4900911;29;19935;-88
2023/10/12 15:08:26;;;;;;;;;;;;;;;12.50;100.00;101311.03;4911575;29;20867;-88
2023/10/12 15:11:11;;;;;;;;;;;;;;;12.48;100.00;101313.75;4893332;28;20033;-89
2023/10/12 15:13:57;;;;;;;;;;;;;;;12.47;100.00;101311.16;4907670;28;19942;-89
2023/10/12 15:16:45;;;;;;;;;;;;;;;12.43;100.00;101304.28;4926457;28;19938;-86
2023/10/12 15:19:32;;;;;;;;;;;;;;;12.42;100.00;101302.56;4913056;29;19927;-89
2023/10/12 15:22:18;;;;;;;;;;;;;;;12.40;100.00;101304.41;4900490;29;19930;-88
2023/10/12 15:25:05;;;;;;;;;;;;;;;12.39;100.00;101305.34;4905729;28;19927;-89
2023/10/12 15:27:53;;;;;;;;;;;;;;;12.39;100.00;101302.69;4907995;29;20015;-90
2023/10/12 15:30:45;;;;;;;;;;;;;;;12.38;100.00;101295.66;4912391;29;20033;-89
2023/10/12 15:33:31;;;;;;;;;;;;;;;12.38;100.00;101293.00;4910003;29;19937;-89
2023/10/12 15:36:17;;;;;;;;;;;;;;;12.33;100.00;101291.41;4894903;28;20021;-84
2023/10/12 15:39:14;;;;;;;;;;;;;;;12.31;100.00;101293.28;4925402;28;20413;-85
2023/10/12 15:42:20;;;;;;;;;;;;;;;12.30;100.00;101296.88;4921137;28;19935;-86